Time;durP1;ratioP1;P1;durP2;ratioP2;P2;SDS_P1;SDS_P2;PMS_P1;PMS_P2;Temp;Humidity;BMP_temperature;BMP_pressure;BME280_temperature;BME280_humidity;BME280_pressure;Samples;Min_cycle;Max_cycle;Signal;HPM_P1;HPM_P2
2020/12/07 00:01:44;;;;;;;0.60;0.60;;;4.00;99.90;;;5.08;100.00;-20820.41;5034746;28;20516;-72
2020/12/07 00:04:11;;;;;;;1.47;1.37;;;3.90;99.90;;;4.88;100.00;-20814.84;5033963;28;20457;-73
2020/12/07 00:06:39;;;;;;;0.60;0.50;;;4.00;99.90;;;4.99;100.00;-20817.91;5048880;28;20954;-70
2020/12/07 00:09:06;;;;;;;1.43;1.33;;;3.90;99.90;;;4.83;100.00;-20813.75;5033872;28;20463;-73
2020/12/07 00:11:34;;;;;;;0.60;0.50;;;3.90;99.90;;;5.05;100.00;-20819.72;5049042;28;20472;-73
2020/12/07 00:14:02;;;;;;;0.70;0.60;;;3.90;99.90;;;4.97;100.00;-20817.50;5053767;28;20428;-74
2020/12/07 00:16:29;;;;;;;0.60;0.60;;;3.90;99.90;;;4.79;100.00;-20812.63;5053565;28;20462;-73
2020/12/07 00:18:57;;;;;;;0.60;0.60;;;4.00;99.90;;;4.85;100.00;-20814.28;5037708;28;20502;-73
2020/12/07 00:21:24;;;;;;;0.60;0.50;;;3.90;99.90;;;4.92;100.00;-20815.97;5037053;28;20481;-73
2020/12/07 00:23:50;;;;;;;0.70;0.50;;;3.90;99.90;;;4.73;100.00;-20810.94;5041929;28;20473;-73
2020/12/07 00:26:17;;;;;;;0.60;0.60;;;3.90;99.90;;;4.94;100.00;-20816.53;5033612;28;20452;-73
2020/12/07 00:28:44;;;;;;;0.60;0.50;;;3.90;99.90;;;4.82;100.00;-20813.47;5033749;28;20182;-73
2020/12/07 00:31:12;;;;;;;0.60;0.60;;;4.00;99.90;;;4.82;100.00;-20813.31;5033360;28;20898;-72
2020/12/07 00:33:39;;;;;;;0.60;0.60;;;3.90;99.90;;;4.67;100.00;-20809.28;5034972;28;20519;-73
2020/12/07 00:36:06;;;;;;;1.67;1.13;;;3.90;99.90;;;4.80;100.00;-20812.91;5044789;28;20501;-73
2020/12/07 00:38:32;;;;;;;0.60;0.60;;;3.90;99.90;;;4.77;100.00;-20812.06;5053247;28;20482;-73
2020/12/07 00:40:59;;;;;;;0.60;0.50;;;4.00;99.90;;;4.72;100.00;-20810.69;5047365;28;20518;-73
2020/12/07 00:43:26;;;;;;;0.60;0.50;;;4.00;99.90;;;4.81;100.00;-20813.03;5043440;28;20495;-72
2020/12/07 00:45:53;;;;;;;0.60;0.60;;;4.00;99.90;;;4.77;100.00;-20811.94;5042130;28;20486;-73
2020/12/07 00:48:21;;;;;;;0.60;0.50;;;4.00;99.90;;;4.80;100.00;-20812.91;5033612;28;20961;-73
2020/12/07 00:50:48;;;;;;;0.60;0.53;;;4.00;99.90;;;4.93;100.00;-20816.25;5040878;28;20441;-73
2020/12/07 00:53:15;;;;;;;0.60;0.60;;;4.00;99.90;;;5.07;100.00;-20820.28;5033988;28;20536;-73
2020/12/07 00:55:42;;;;;;;0.60;0.50;;;4.00;99.90;;;5.04;100.00;-20819.31;5037943;28;20547;-74
2020/12/07 00:58:09;;;;;;;3.90;1.53;;;4.00;99.90;;;4.91;100.00;-20815.81;5041286;28;20773;-74
2020/12/07 01:00:36;;;;;;;0.60;0.50;;;4.00;99.90;;;4.89;100.00;-20815.13;5033237;28;20417;-74
2020/12/07 01:03:03;;;;;;;0.60;0.50;;;4.00;99.90;;;5.02;100.00;-20818.75;5033412;28;20471;-73
2020/12/07 01:05:31;;;;;;;0.60;0.60;;;4.00;99.90;;;5.04;100.00;-20819.31;5044310;28;20458;-73
2020/12/07 01:07:58;;;;;;;0.60;0.60;;;4.00;99.90;;;4.88;100.00;-20814.84;5040387;28;20453;-73
2020/12/07 01:10:25;;;;;;;0.60;0.50;;;4.00;99.90;;;4.78;100.00;-20812.22;5033515;28;20473;-73
2020/12/07 01:12:53;;;;;;;0.60;0.60;;;4.00;99.90;;;4.85;100.00;-20814.28;5041900;28;20812;-72
2020/12/07 01:15:21;;;;;;;0.60;0.60;;;4.00;99.90;;;4.90;100.00;-20815.41;5038046;28;20647;-72
2020/12/07 01:17:48;;;;;;;0.60;0.60;;;4.00;99.90;;;4.79;100.00;-20812.50;5054635;28;20440;-72
2020/12/07 01:20:15;;;;;;;0.90;0.90;;;4.00;99.90;;;4.98;100.00;-20817.63;5050492;28;20481;-73
2020/12/07 01:22:43;;;;;;;0.60;0.57;;;4.00;99.90;;;4.88;100.00;-20815.00;5035397;28;20441;-71
2020/12/07 01:25:11;;;;;;;0.60;0.60;;;4.00;99.90;;;5.09;100.00;-20820.69;5053997;28;20841;-73
2020/12/07 01:27:45;;;;;;;0.60;0.50;;;4.00;99.90;;;4.95;100.00;-20816.81;5041878;28;20809;-73
2020/12/07 01:30:16;;;;;;;0.60;0.50;;;4.00;99.90;;;4.84;100.00;-20814.00;5045513;28;20452;-74
2020/12/07 01:32:43;;;;;;;0.60;0.60;;;4.00;99.90;;;5.01;100.00;-20818.47;5043929;28;20450;-72
2020/12/07 01:35:11;;;;;;;0.60;0.50;;;4.00;99.90;;;5.03;100.00;-20819.03;5043448;28;20535;-74
2020/12/07 01:37:38;;;;;;;0.60;0.50;;;4.00;99.90;;;5.11;100.00;-20821.25;5055421;28;20493;-73
2020/12/07 01:40:08;;;;;;;0.70;0.60;;;3.90;99.90;;;4.95;100.00;-20816.81;5055228;28;20467;-73
2020/12/07 01:42:35;;;;;;;0.60;0.50;;;3.90;99.90;;;4.91;100.00;-20815.81;5056815;28;20959;-73
2020/12/07 01:45:03;;;;;;;0.63;0.60;;;4.00;99.90;;;4.91;100.00;-20815.69;5053817;28;20467;-73
2020/12/07 01:47:30;;;;;;;0.60;0.50;;;4.00;99.90;;;5.00;100.00;-20818.19;5053040;28;21059;-73
2020/12/07 01:50:04;;;;;;;0.60;0.50;;;3.90;99.90;;;4.91;100.00;-20815.69;5051537;28;20452;-73
2020/12/07 01:52:33;;;;;;;0.83;0.83;;;4.00;99.90;;;4.92;100.00;-20815.97;5051492;28;20807;-74
2020/12/07 01:55:03;;;;;;;0.60;0.60;;;4.00;99.90;;;4.99;100.00;-20817.91;5055563;28;20451;-73
2020/12/07 01:57:44;;;;;;;0.60;0.60;;;3.90;99.90;;;4.85;100.00;-20814.28;5055288;28;20428;-73
2020/12/07 02:00:12;;;;;;;0.70;0.70;;;4.00;99.90;;;4.94;100.00;-20816.66;5054852;28;20475;-72
2020/12/07 02:02:56;;;;;;;0.60;0.60;;;3.90;99.90;;;4.94;100.00;-20816.53;5049925;28;20458;-73
2020/12/07 02:05:27;;;;;;;0.60;0.60;;;3.90;99.90;;;4.87;100.00;-20814.56;5055478;28;20550;-74
2020/12/07 02:08:12;;;;;;;0.60;0.50;;;3.90;99.90;;;4.90;100.00;-20815.56;5056092;28;20436;-74
2020/12/07 02:10:42;;;;;;;0.60;0.60;;;3.90;99.90;;;4.87;100.00;-20814.72;5054983;28;20459;-74
2020/12/07 02:13:14;;;;;;;0.60;0.50;;;3.90;99.90;;;4.90;100.00;-20815.41;5053969;28;20489;-72
2020/12/07 02:15:42;;;;;;;0.60;0.60;;;3.90;99.90;;;4.71;100.00;-20810.41;5035970;28;20442;-73
2020/12/07 02:18:09;;;;;;;0.60;0.50;;;4.00;99.90;;;5.00;100.00;-20818.19;5045470;28;20445;-74
2020/12/07 02:20:38;;;;;;;0.60;0.60;;;3.90;99.90;;;4.88;100.00;-20815.00;5047968;28;20520;-74
2020/12/07 02:23:07;;;;;;;0.60;0.60;;;3.90;99.90;;;4.97;100.00;-20817.34;5053526;28;20452;-74
2020/12/07 02:26:00;;;;;;;0.60;0.60;;;4.00;99.90;;;4.91;100.00;-20815.81;5036660;28;20449;-74
2020/12/07 02:28:27;;;;;;;0.70;0.70;;;4.00;99.90;;;4.85;100.00;-20814.28;5051327;28;20440;-74
2020/12/07 02:30:54;;;;;;;1.00;1.00;;;3.90;99.90;;;5.01;100.00;-20818.47;5034551;28;20769;-71
2020/12/07 02:33:21;;;;;;;0.60;0.60;;;3.90;99.90;;;5.01;100.00;-20818.47;5035427;28;20456;-73
2020/12/07 02:35:52;;;;;;;0.60;0.50;;;3.90;99.90;;;4.88;100.00;-20814.84;5043632;28;20510;-74
2020/12/07 02:38:19;;;;;;;0.60;0.60;;;3.90;99.90;;;4.91;100.00;-20815.69;5035076;28;20444;-74
2020/12/07 02:40:50;;;;;;;0.60;0.50;;;3.90;99.90;;;4.83;100.00;-20813.75;5048609;28;20571;-73
2020/12/07 02:43:18;;;;;;;0.60;0.60;;;3.90;99.90;;;4.92;100.00;-20815.97;5065594;28;20456;-74
2020/12/07 02:45:46;;;;;;;0.60;0.60;;;3.90;99.90;;;4.91;100.00;-20815.69;5034137;28;20901;-74
2020/12/07 02:48:15;;;;;;;0.60;0.60;;;3.80;99.90;;;4.78;100.00;-20812.34;5042617;28;20204;-73
2020/12/07 02:50:48;;;;;;;0.60;0.50;;;3.90;99.90;;;4.95;100.00;-20816.94;5049083;28;20456;-73
2020/12/07 02:53:18;;;;;;;0.60;0.57;;;3.90;99.90;;;4.84;100.00;-20813.88;5052392;28;20769;-74
2020/12/07 02:55:46;;;;;;;0.60;0.57;;;3.90;99.90;;;4.71;100.00;-20810.41;5034234;28;20268;-73
2020/12/07 02:58:13;;;;;;;0.60;0.53;;;3.90;99.90;;;4.80;100.00;-20812.75;5041375;28;20201;-74
2020/12/07 03:00:42;;;;;;;0.60;0.50;;;3.90;99.90;;;4.87;100.00;-20814.56;5033668;28;20961;-73
2020/12/07 03:03:10;;;;;;;0.60;0.50;;;3.90;99.90;;;4.74;100.00;-20811.22;5034249;28;20441;-74
2020/12/07 03:05:39;;;;;;;0.60;0.60;;;3.90;99.90;;;4.90;100.00;-20815.41;5034919;28;20558;-74
2020/12/07 03:08:13;;;;;;;0.60;0.50;;;3.80;99.90;;;4.74;100.00;-20811.22;5034736;28;20437;-73
2020/12/07 03:10:41;;;;;;;0.83;0.83;;;3.80;99.90;;;4.85;100.00;-20814.28;5034764;28;20507;-73
2020/12/07 03:13:10;;;;;;;0.60;0.60;;;3.80;99.90;;;4.82;100.00;-20813.47;5039254;28;21218;-73
2020/12/07 03:15:40;;;;;;;0.77;0.77;;;3.80;99.90;;;4.80;100.00;-20812.91;5044071;28;20456;-70
2020/12/07 03:18:10;;;;;;;0.60;0.60;;;3.80;99.90;;;4.73;100.00;-20810.94;5051471;28;20793;-73
2020/12/07 03:20:55;;;;;;;0.60;0.50;;;3.80;99.90;;;4.56;100.00;-20806.22;5043110;28;20518;-73
2020/12/07 03:23:22;;;;;;;0.60;0.50;;;3.80;99.90;;;4.66;100.00;-20808.88;5064740;28;20226;-74
2020/12/07 03:25:50;;;;;;;0.60;0.50;;;3.80;99.90;;;4.71;100.00;-20810.41;5040969;28;20497;-73
2020/12/07 03:28:20;;;;;;;0.60;0.50;;;3.70;99.90;;;4.57;100.00;-20806.63;5033840;28;20502;-74
2020/12/07 03:30:47;;;;;;;0.60;0.60;;;3.70;99.90;;;4.58;100.00;-20806.91;5045142;28;20190;-74
2020/12/07 03:33:14;;;;;;;0.60;0.60;;;3.80;99.90;;;4.64;100.00;-20808.44;5032760;28;20444;-73
2020/12/07 03:35:42;;;;;;;0.70;0.70;;;3.80;99.90;;;4.70;100.00;-20809.97;5038937;28;20900;-72
2020/12/07 03:38:11;;;;;;;0.60;0.60;;;3.70;99.90;;;4.60;100.00;-20807.47;5051456;28;20197;-73
2020/12/07 03:40:38;;;;;;;0.60;0.60;;;3.70;99.90;;;4.54;100.00;-20805.66;5052515;28;20209;-73
2020/12/07 03:43:12;;;;;;;1.88;1.77;;;3.70;99.90;;;4.50;100.00;-20804.69;5049946;28;20194;-73
2020/12/07 03:45:44;;;;;;;0.60;0.50;;;3.70;99.90;;;4.47;100.00;-20803.84;5054409;28;20206;-72
2020/12/07 03:48:15;;;;;;;0.60;0.50;;;3.70;99.90;;;4.48;100.00;-20804.13;5033155;28;20647;-72
2020/12/07 03:50:42;;;;;;;0.60;0.57;;;3.70;99.90;;;4.49;100.00;-20804.25;5047923;28;20535;-73
2020/12/07 03:53:10;;;;;;;0.60;0.50;;;3.70;99.90;;;4.58;100.00;-20806.78;5036072;28;20850;-73
2020/12/07 03:55:37;;;;;;;0.60;0.60;;;3.70;99.90;;;4.56;100.00;-20806.22;5064209;28;20459;-72
2020/12/07 03:58:12;;;;;;;0.60;0.60;;;3.70;99.90;;;4.57;100.00;-20806.50;5052914;28;20665;-73
2020/12/07 04:00:40;;;;;;;1.80;1.25;;;3.70;99.90;;;4.68;100.00;-20809.56;5069487;28;20444;-73
2020/12/07 04:03:11;;;;;;;0.60;0.50;;;3.70;99.90;;;4.73;100.00;-20810.81;5048433;28;20260;-73
2020/12/07 04:05:46;;;;;;;0.70;0.60;;;3.70;99.90;;;4.75;100.00;-20811.50;5035361;28;20198;-73
2020/12/07 04:08:17;;;;;;;0.60;0.50;;;3.70;99.90;;;4.66;100.00;-20809.00;5032190;28;20929;-74
2020/12/07 04:10:45;;;;;;;0.60;0.50;;;3.70;99.90;;;4.77;100.00;-20812.06;5032602;28;20488;-74
2020/12/07 04:13:13;;;;;;;0.60;0.60;;;3.70;99.90;;;4.72;100.00;-20810.69;5035708;28;20864;-73
2020/12/07 04:15:40;;;;;;;0.75;0.75;;;3.80;99.90;;;4.76;100.00;-20811.78;5033759;28;20426;-73
2020/12/07 04:18:26;;;;;;;0.60;0.60;;;3.80;99.90;;;4.73;100.00;-20810.94;5039773;28;20716;-73
2020/12/07 04:20:54;;;;;;;0.60;0.60;;;3.80;99.90;;;4.66;100.00;-20808.88;5035090;28;20689;-72
2020/12/07 04:23:21;;;;;;;0.60;0.60;;;3.80;99.90;;;4.64;100.00;-20808.44;5035694;28;20685;-73
2020/12/07 04:25:48;;;;;;;0.60;0.50;;;3.80;99.90;;;4.61;100.00;-20807.63;5042433;28;20348;-74
2020/12/07 04:28:16;;;;;;;0.60;0.60;;;3.80;99.90;;;4.69;100.00;-20809.84;5043560;28;20644;-73
2020/12/07 04:30:42;;;;;;;0.60;0.60;;;3.80;99.90;;;4.54;100.00;-20805.66;5053470;28;20203;-74
2020/12/07 04:33:09;;;;;;;0.60;0.50;;;3.80;99.90;;;4.68;100.00;-20809.56;5050541;28;20247;-74
2020/12/07 04:35:41;;;;;;;0.60;0.60;;;3.80;99.90;;;4.77;100.00;-20812.06;5043208;28;20441;-73
2020/12/07 04:38:09;;;;;;;0.60;0.60;;;3.80;99.90;;;4.78;100.00;-20812.34;5045105;28;20501;-73
2020/12/07 04:40:37;;;;;;;0.80;0.80;;;3.80;99.90;;;4.90;100.00;-20815.56;5045646;28;20552;-74
2020/12/07 04:43:04;;;;;;;0.60;0.50;;;3.80;99.90;;;4.72;100.00;-20810.69;5042840;28;20208;-73
2020/12/07 04:45:32;;;;;;;0.70;0.70;;;3.80;99.90;;;4.71;100.00;-20810.41;5048149;28;20229;-74
2020/12/07 04:48:00;;;;;;;0.60;0.50;;;3.80;99.90;;;4.67;100.00;-20809.28;5050538;28;20445;-74
2020/12/07 04:50:30;;;;;;;0.60;0.50;;;3.90;99.90;;;4.56;100.00;-20806.34;5047238;28;20507;-74
2020/12/07 04:52:58;;;;;;;0.60;0.50;;;3.90;99.90;;;4.56;100.00;-20806.22;5040096;28;20645;-73
2020/12/07 04:55:26;;;;;;;0.60;0.60;;;3.90;99.90;;;4.60;100.00;-20807.47;5049072;28;20495;-72
2020/12/07 04:57:55;;;;;;;0.60;0.50;;;3.90;99.90;;;4.65;100.00;-20808.72;5043982;28;20444;-73
2020/12/07 05:00:24;;;;;;;0.60;0.50;;;3.90;99.90;;;4.78;100.00;-20812.22;5037289;28;20471;-74
2020/12/07 05:02:54;;;;;;;0.60;0.60;;;3.90;99.90;;;4.67;100.00;-20809.13;5039887;28;21015;-73
2020/12/07 05:05:21;;;;;;;0.60;0.50;;;3.90;99.90;;;4.71;100.00;-20810.41;5046519;28;20461;-73
2020/12/07 05:07:51;;;;;;;0.60;0.60;;;3.90;99.90;;;5.00;100.00;-20818.34;5050247;28;20493;-74
2020/12/07 05:10:26;;;;;;;0.60;0.50;;;3.90;99.90;;;4.97;100.00;-20817.34;5040597;28;20464;-73
2020/12/07 05:13:03;;;;;;;0.60;0.50;;;3.90;99.90;;;4.96;100.00;-20817.09;5043895;28;20618;-73
2020/12/07 05:15:31;;;;;;;0.60;0.50;;;3.90;99.90;;;4.95;100.00;-20816.81;5037635;28;20523;-73
2020/12/07 05:17:59;;;;;;;0.60;0.50;;;3.90;99.90;;;4.94;100.00;-20816.53;5043952;28;20890;-74
2020/12/07 05:20:26;;;;;;;0.60;0.50;;;3.90;99.90;;;4.84;100.00;-20814.00;5039289;28;20445;-73
2020/12/07 05:22:55;;;;;;;0.60;0.60;;;3.90;99.90;;;4.78;100.00;-20812.34;5040843;28;20450;-74
2020/12/07 05:25:23;;;;;;;0.60;0.60;;;3.90;99.90;;;4.84;100.00;-20813.88;5042884;28;20475;-74
2020/12/07 05:27:51;;;;;;;0.60;0.60;;;4.00;99.90;;;4.81;100.00;-20813.19;5036022;28;20467;-74
2020/12/07 05:30:30;;;;;;;0.70;0.60;;;4.00;99.90;;;4.77;100.00;-20812.06;5044187;28;20494;-73
2020/12/07 05:33:03;;;;;;;0.70;0.60;;;4.00;99.90;;;4.89;100.00;-20815.13;5050959;28;20470;-73
2020/12/07 05:35:29;;;;;;;0.60;0.50;;;4.00;99.90;;;4.93;100.00;-20816.25;5040710;28;20445;-73
2020/12/07 05:38:04;;;;;;;1.03;0.93;;;4.00;99.90;;;4.73;100.00;-20810.81;5040872;28;20518;-73
2020/12/07 05:40:31;;;;;;;0.60;0.60;;;4.00;99.90;;;4.76;100.00;-20811.66;5031205;28;20484;-73
2020/12/07 05:42:59;;;;;;;0.60;0.50;;;4.00;99.90;;;4.93;100.00;-20816.25;5041722;28;20501;-74
2020/12/07 05:45:26;;;;;;;0.60;0.60;;;4.00;99.90;;;4.81;100.00;-20813.19;5051028;28;20455;-73
2020/12/07 05:47:57;;;;;;;0.70;0.60;;;3.90;99.90;;;4.68;100.00;-20809.44;5049888;28;20440;-72
2020/12/07 05:50:32;;;;;;;0.70;0.60;;;4.00;99.90;;;4.71;100.00;-20810.25;5050211;28;20424;-73
2020/12/07 05:53:02;;;;;;;0.60;0.60;;;3.90;99.90;;;4.65;100.00;-20808.72;5049548;28;20421;-73
2020/12/07 05:55:30;;;;;;;0.60;0.60;;;3.90;99.90;;;4.65;100.00;-20808.72;5035288;28;21236;-72
2020/12/07 05:58:10;;;;;;;0.60;0.60;;;3.90;99.90;;;4.82;100.00;-20813.47;5055703;28;20562;-74
2020/12/07 06:00:38;;;;;;;0.70;0.60;;;3.90;99.90;;;4.81;100.00;-20813.03;5056786;28;20404;-74
2020/12/07 06:03:06;;;;;;;0.70;0.70;;;3.90;99.90;;;4.71;100.00;-20810.41;5056371;28;20439;-74
2020/12/07 06:05:35;;;;;;;0.60;0.50;;;3.90;99.90;;;4.65;100.00;-20808.59;5054251;28;20466;-73
2020/12/07 06:08:06;;;;;;;0.60;0.60;;;3.90;99.90;;;4.70;100.00;-20810.13;5053719;28;20494;-74
2020/12/07 06:10:38;;;;;;;0.60;0.60;;;3.90;99.90;;;4.73;100.00;-20810.94;5055955;28;21009;-75
2020/12/07 06:13:11;;;;;;;0.70;0.60;;;3.90;99.90;;;4.65;100.00;-20808.72;5056403;28;20444;-72
2020/12/07 06:15:44;;;;;;;0.67;0.60;;;3.90;99.90;;;4.51;100.00;-20804.97;5056234;28;20440;-74
2020/12/07 06:18:26;;;;;;;0.60;0.60;;;3.80;99.90;;;4.64;100.00;-20808.44;5056097;28;20470;-74
2020/12/07 06:21:04;;;;;;;0.70;0.60;;;3.90;99.90;;;4.64;100.00;-20808.44;5056083;28;20750;-74
2020/12/07 06:23:35;;;;;;;0.60;0.50;;;3.80;99.90;;;4.66;100.00;-20809.00;5049339;28;20527;-74
2020/12/07 06:26:05;;;;;;;0.60;0.50;;;3.80;99.90;;;4.64;100.00;-20808.44;5035704;28;20472;-74
2020/12/07 06:28:34;;;;;;;0.60;0.50;;;3.90;99.90;;;4.53;100.00;-20805.38;5036219;28;20623;-72
2020/12/07 06:31:08;;;;;;;0.70;0.60;;;3.90;99.90;;;4.51;100.00;-20804.97;5044245;28;20436;-74
2020/12/07 06:33:40;;;;;;;0.60;0.60;;;3.90;99.90;;;4.64;100.00;-20808.44;5055658;28;20428;-74
2020/12/07 06:36:25;;;;;;;0.70;0.60;;;3.90;99.90;;;4.85;100.00;-20814.16;5055710;28;20425;-73
2020/12/07 06:38:55;;;;;;;0.70;0.60;;;3.90;99.90;;;4.85;100.00;-20814.28;5071246;28;20260;-73
2020/12/07 06:41:33;;;;;;;1.73;1.33;;;3.90;99.90;;;4.74;100.00;-20811.22;5055811;28;20452;-73
2020/12/07 06:44:04;;;;;;;0.60;0.50;;;3.90;99.90;;;4.71;100.00;-20810.41;5056108;28;20478;-73
2020/12/07 06:46:56;;;;;;;0.70;0.60;;;4.00;99.90;;;4.77;100.00;-20812.06;5055442;28;20448;-74
2020/12/07 06:49:35;;;;;;;0.70;0.60;;;3.90;99.90;;;4.77;100.00;-20811.94;5055416;28;20943;-73
2020/12/07 06:52:10;;;;;;;0.60;0.50;;;3.90;99.90;;;4.68;100.00;-20809.56;5055434;28;20809;-74
2020/12/07 06:57:28;;;;;;;0.60;0.50;;;3.90;99.90;;;4.72;100.00;-20810.69;5034169;28;20437;-73
2020/12/07 06:59:59;;;;;;;0.60;0.50;;;4.00;99.90;;;4.63;100.00;-20808.03;5035493;28;20421;-73
2020/12/07 07:02:27;;;;;;;0.60;0.60;;;4.00;99.90;;;4.66;100.00;-20808.88;5038580;28;20424;-74
2020/12/07 07:04:57;;;;;;;0.60;0.50;;;4.00;99.90;;;4.72;100.00;-20810.69;5055004;28;20487;-73
2020/12/07 07:07:28;;;;;;;0.60;0.60;;;4.00;99.90;;;4.66;100.00;-20809.00;5053680;28;20513;-74
2020/12/07 07:09:56;;;;;;;0.60;0.50;;;4.00;99.90;;;4.71;100.00;-20810.41;5055217;28;20551;-74
2020/12/07 07:12:23;;;;;;;0.70;0.60;;;4.00;99.90;;;4.74;100.00;-20811.09;5043476;28;20440;-74
2020/12/07 07:14:53;;;;;;;0.60;0.60;;;4.00;99.90;;;4.72;100.00;-20810.69;5054961;28;21002;-73
2020/12/07 07:17:21;;;;;;;1.43;1.23;;;4.00;99.90;;;4.71;100.00;-20810.41;5064814;28;20462;-73
2020/12/07 07:19:49;;;;;;;0.60;0.60;;;4.00;99.90;;;4.69;100.00;-20809.84;5047609;28;20440;-73
2020/12/07 07:22:16;;;;;;;0.70;0.60;;;4.00;99.90;;;4.77;100.00;-20812.06;5049997;28;20424;-73
2020/12/07 07:30:13;;;;;;;0.60;0.60;;;4.00;99.90;;;4.77;100.00;-20812.06;5054942;28;20412;-73
2020/12/07 07:32:42;;;;;;;0.60;0.60;;;4.00;99.90;;;4.71;100.00;-20810.41;5054989;28;20478;-73
2020/12/07 07:35:10;;;;;;;0.60;0.50;;;4.00;99.90;;;4.78;100.00;-20812.34;5054852;28;20463;-73
2020/12/07 07:37:38;;;;;;;0.60;0.50;;;4.00;99.90;;;4.75;100.00;-20811.50;5053066;28;20487;-73
2020/12/07 07:40:10;;;;;;;0.60;0.50;;;4.00;99.90;;;4.78;100.00;-20812.34;5054246;28;20495;-73
2020/12/07 07:42:43;;;;;;;0.60;0.57;;;4.10;99.90;;;4.87;100.00;-20814.56;5054519;28;20952;-73
2020/12/07 07:45:17;;;;;;;0.60;0.60;;;4.00;99.90;;;4.76;100.00;-20811.78;5054383;28;20562;-73
2020/12/07 07:47:52;;;;;;;0.60;0.50;;;4.00;99.90;;;4.78;100.00;-20812.34;5054293;28;20771;-72
2020/12/07 08:15:59;;;;;;;0.60;0.60;;;4.20;99.90;;;5.02;100.00;-20818.75;5033814;28;20413;-74
2020/12/07 08:18:33;;;;;;;0.60;0.60;;;4.20;99.90;;;4.92;100.00;-20815.97;5033645;28;20431;-73
2020/12/07 08:21:02;;;;;;;0.60;0.50;;;4.30;99.90;;;4.91;100.00;-20815.69;5033259;28;20425;-73
2020/12/07 08:23:31;;;;;;;0.60;0.50;;;4.30;99.90;;;4.94;100.00;-20816.53;5033736;28;20433;-73
2020/12/07 08:26:00;;;;;;;0.60;0.50;;;4.30;99.90;;;5.13;100.00;-20821.81;5033901;28;20468;-73
2020/12/07 08:28:31;;;;;;;0.60;0.60;;;4.30;99.90;;;5.24;100.00;-20824.88;5033449;28;20433;-73
2020/12/07 08:31:11;;;;;;;0.60;0.60;;;4.30;99.90;;;5.04;100.00;-20819.44;5032631;28;21023;-74
2020/12/07 08:33:41;;;;;;;0.70;0.60;;;4.40;99.90;;;5.27;100.00;-20825.72;5032185;28;20878;-74
2020/12/07 08:36:09;;;;;;;0.60;0.50;;;4.40;99.90;;;5.26;100.00;-20825.28;5032189;28;20429;-73
2020/12/07 08:38:39;;;;;;;0.67;0.60;;;4.40;99.90;;;5.15;100.00;-20822.22;5033266;28;20417;-73
2020/12/07 08:41:11;;;;;;;0.60;0.50;;;4.40;99.90;;;5.16;100.00;-20822.50;5033546;28;20495;-73
2020/12/07 08:43:45;;;;;;;0.70;0.60;;;4.40;99.90;;;5.20;100.00;-20823.75;5034090;28;20421;-73
2020/12/07 08:46:15;;;;;;;0.60;0.60;;;4.40;99.90;;;5.20;100.00;-20823.75;5032268;28;20945;-73
2020/12/07 08:48:43;;;;;;;0.60;0.50;;;4.50;99.90;;;5.20;100.00;-20823.75;5033646;28;20857;-73
2020/12/07 08:51:11;;;;;;;0.60;0.60;;;4.50;99.90;;;5.30;100.00;-20826.41;5033801;28;20830;-73
2020/12/07 08:53:39;;;;;;;0.70;0.60;;;4.50;99.90;;;5.30;100.00;-20826.41;5033078;28;20511;-73
2020/12/07 08:56:09;;;;;;;0.60;0.50;;;4.50;99.90;;;5.20;100.00;-20823.75;5033390;28;20445;-72
2020/12/07 08:58:37;;;;;;;0.60;0.50;;;4.50;99.90;;;5.33;100.00;-20827.25;5035248;28;20473;-73
2020/12/07 09:01:08;;;;;;;0.60;0.60;;;4.50;99.90;;;5.22;100.00;-20824.31;5044447;28;20443;-73
2020/12/07 09:03:37;;;;;;;0.60;0.50;;;4.60;99.90;;;5.27;100.00;-20825.72;5053064;28;20838;-72
2020/12/07 09:06:06;;;;;;;0.70;0.63;;;4.60;99.90;;;5.25;100.00;-20825.00;5061276;28;20455;-73
2020/12/07 09:08:34;;;;;;;0.60;0.50;;;4.60;99.90;;;5.29;100.00;-20826.25;5052945;28;20510;-73
2020/12/07 09:11:03;;;;;;;0.60;0.60;;;4.60;99.90;;;5.38;100.00;-20828.63;5053147;28;20440;-72
2020/12/07 09:13:30;;;;;;;0.90;0.90;;;4.70;99.90;;;5.47;100.00;-20831.00;5053190;28;20482;-72
2020/12/07 09:15:58;;;;;;;0.60;0.60;;;4.70;99.90;;;5.54;100.00;-20832.94;5053015;28;20920;-73
2020/12/07 09:18:27;;;;;;;0.60;0.50;;;4.70;99.90;;;5.45;100.00;-20830.59;5051577;28;20925;-73
2020/12/07 09:20:54;;;;;;;0.63;0.60;;;4.70;99.90;;;5.56;100.00;-20833.50;5053504;28;20500;-73
2020/12/07 09:23:24;;;;;;;0.60;0.60;;;4.80;99.90;;;5.57;100.00;-20833.78;5039951;28;20447;-72
2020/12/07 09:25:52;;;;;;;0.60;0.60;;;4.80;99.90;;;5.58;100.00;-20834.06;5034202;28;20564;-72
2020/12/07 09:28:19;;;;;;;0.60;0.60;;;4.80;99.90;;;5.64;100.00;-20835.72;5053160;28;20842;-73
2020/12/07 09:30:47;;;;;;;0.60;0.50;;;4.90;99.90;;;5.77;100.00;-20839.34;5053812;28;20431;-73
2020/12/07 09:33:14;;;;;;;0.60;0.60;;;4.90;99.90;;;5.77;100.00;-20839.34;5056625;28;20434;-73
2020/12/07 09:35:43;;;;;;;0.60;0.60;;;4.90;99.90;;;5.78;100.00;-20839.63;5057202;28;20820;-72
2020/12/07 09:38:11;;;;;;;0.60;0.50;;;4.90;99.90;;;5.90;100.00;-20842.81;5056708;28;20416;-73
2020/12/07 09:40:39;;;;;;;0.70;0.60;;;4.90;99.90;;;5.97;100.00;-20844.63;5056841;28;20444;-73
2020/12/07 09:43:07;;;;;;;0.60;0.50;;;5.00;99.90;;;5.96;100.00;-20844.34;5056827;28;20439;-73
2020/12/07 09:45:35;;;;;;;0.60;0.50;;;5.00;99.90;;;5.93;100.00;-20843.53;5056864;28;20452;-73
2020/12/07 09:48:03;;;;;;;0.60;0.50;;;5.00;99.90;;;6.03;100.00;-20846.31;5056384;28;20474;-73
2020/12/07 09:50:34;;;;;;;0.60;0.60;;;5.00;99.90;;;6.03;100.00;-20846.44;5056439;28;20462;-73
2020/12/07 09:53:07;;;;;;;0.60;0.60;;;5.10;99.90;;;5.96;100.00;-20844.34;5054022;28;20772;-73
2020/12/07 09:55:35;;;;;;;0.70;0.60;;;5.00;99.90;;;5.98;100.00;-20845.06;5035348;28;20463;-73
2020/12/07 09:58:03;;;;;;;0.60;0.60;;;5.00;99.90;;;6.02;100.00;-20846.03;5051217;28;20989;-73
2020/12/07 10:00:31;;;;;;;0.60;0.50;;;5.10;99.90;;;6.12;100.00;-20848.81;5056227;28;20440;-73
2020/12/07 10:02:58;;;;;;;0.60;0.50;;;5.10;99.90;;;6.14;100.00;-20849.22;5055565;28;20431;-72
2020/12/07 10:05:26;;;;;;;0.60;0.60;;;5.10;99.90;;;6.07;100.00;-20847.28;5047272;28;20807;-73
2020/12/07 10:07:54;;;;;;;0.70;0.60;;;5.10;99.90;;;5.81;100.00;-20840.47;5051289;28;20518;-73
2020/12/07 10:10:23;;;;;;;0.60;0.60;;;5.10;99.90;;;5.85;100.00;-20841.28;5036273;28;20471;-73
2020/12/07 10:12:50;;;;;;;0.60;0.60;;;5.10;99.90;;;5.84;100.00;-20841.16;5041614;28;20448;-73
2020/12/07 10:15:17;;;;;;;0.60;0.50;;;5.10;99.90;;;5.88;100.00;-20842.13;5053355;28;20427;-72
2020/12/07 10:17:45;;;;;;;0.60;0.60;;;5.10;99.90;;;5.81;100.00;-20840.47;5056014;28;20459;-72
2020/12/07 10:20:12;;;;;;;0.70;0.60;;;5.10;99.90;;;5.87;100.00;-20841.84;5055787;28;20932;-72
2020/12/07 10:22:40;;;;;;;0.60;0.60;;;5.10;99.90;;;5.81;100.00;-20840.47;5055546;28;20465;-73
2020/12/07 10:25:07;;;;;;;0.60;0.50;;;5.10;99.90;;;5.80;100.00;-20840.03;5036166;28;20476;-73
2020/12/07 10:27:35;;;;;;;0.60;0.50;;;5.10;99.90;;;5.87;100.00;-20842.00;5036031;28;20432;-74
2020/12/07 10:30:04;;;;;;;0.70;0.60;;;5.20;99.90;;;5.87;100.00;-20842.00;5035839;28;20512;-73
2020/12/07 10:32:31;;;;;;;0.60;0.50;;;5.20;99.90;;;6.00;100.00;-20845.47;5035547;28;20509;-73
2020/12/07 10:34:59;;;;;;;0.60;0.60;;;5.20;99.90;;;6.21;100.00;-20851.31;5035706;28;20423;-73
2020/12/07 10:37:26;;;;;;;0.60;0.57;;;5.30;99.90;;;6.27;100.00;-20852.97;5035432;28;20452;-73
2020/12/07 10:39:53;;;;;;;0.60;0.50;;;5.30;99.90;;;6.19;100.00;-20850.75;5035652;28;20453;-73
2020/12/07 10:42:20;;;;;;;0.63;0.60;;;5.30;99.90;;;6.27;100.00;-20852.97;5035375;28;20552;-73
2020/12/07 10:44:48;;;;;;;0.70;0.60;;;5.40;99.90;;;6.23;100.00;-20851.72;5035477;28;20839;-73
2020/12/07 10:47:16;;;;;;;0.60;0.53;;;5.50;99.90;;;6.25;100.00;-20852.41;5035196;28;20523;-73
2020/12/07 10:49:43;;;;;;;0.60;0.50;;;5.50;99.90;;;6.41;100.00;-20856.75;5035882;28;20427;-73
2020/12/07 10:52:10;;;;;;;0.60;0.60;;;5.50;99.90;;;6.47;100.00;-20858.25;5035619;28;20518;-74
2020/12/07 10:54:37;;;;;;;0.70;0.60;;;5.50;99.90;;;6.59;100.00;-20861.59;5050514;28;20435;-74
2020/12/07 10:57:04;;;;;;;0.70;0.60;;;5.50;99.90;;;6.47;100.00;-20858.41;5053577;28;20428;-73
2020/12/07 10:59:32;;;;;;;0.60;0.60;;;5.50;99.90;;;6.41;100.00;-20856.59;5055061;28;20430;-74
2020/12/07 11:02:00;;;;;;;0.60;0.60;;;5.60;99.90;;;6.48;100.00;-20858.53;5055204;28;20797;-73
2020/12/07 11:04:27;;;;;;;0.63;0.57;;;5.60;99.90;;;6.56;100.00;-20860.78;5054992;28;20452;-73